sensor_id;sensor_type;location;lat;lon;timestamp;pressure;altitude;pressure_sealevel;temperature;humidity
55171;BME280;41060;47.510;8.680;2023-05-22T00:01:52;96699.34;;;22.91;41.60
55171;BME280;41060;47.510;8.680;2023-05-22T00:04:20;96698.69;;;23.09;41.22
55171;BME280;41060;47.510;8.680;2023-05-22T00:06:48;96692.03;;;23.25;40.71
55171;BME280;41060;47.510;8.680;2023-05-22T00:09:16;96694.88;;;23.36;40.47
55171;BME280;41060;47.510;8.680;2023-05-22T00:11:42;96695.72;;;23.37;40.37
55171;BME280;41060;47.510;8.680;2023-05-22T00:14:09;96703.28;;;23.09;41.01
55171;BME280;41060;47.510;8.680;2023-05-22T00:16:40;96701.59;;;23.21;40.96
55171;BME280;41060;47.510;8.680;2023-05-22T00:19:07;96695.56;;;23.25;40.90
55171;BME280;41060;47.510;8.680;2023-05-22T00:21:37;96700.94;;;23.32;40.48
55171;BME280;41060;47.510;8.680;2023-05-22T00:24:05;96707.00;;;23.14;41.00
55171;BME280;41060;47.510;8.680;2023-05-22T00:26:33;96704.94;;;23.10;41.09
55171;BME280;41060;47.510;8.680;2023-05-22T00:29:00;96706.97;;;23.08;40.97
55171;BME280;41060;47.510;8.680;2023-05-22T00:31:27;96702.66;;;22.80;41.82
55171;BME280;41060;47.510;8.680;2023-05-22T00:33:54;96700.78;;;22.81;41.63
55171;BME280;41060;47.510;8.680;2023-05-22T00:36:21;96701.41;;;22.96;41.29
55171;BME280;41060;47.510;8.680;2023-05-22T00:38:47;96706.41;;;22.66;42.17
55171;BME280;41060;47.510;8.680;2023-05-22T00:41:14;96704.06;;;22.37;42.31
55171;BME280;41060;47.510;8.680;2023-05-22T00:43:42;96708.22;;;22.39;42.19
55171;BME280;41060;47.510;8.680;2023-05-22T00:46:09;96709.84;;;22.20;43.12
55171;BME280;41060;47.510;8.680;2023-05-22T00:48:36;96714.84;;;22.17;43.24
55171;BME280;41060;47.510;8.680;2023-05-22T00:51:04;96706.75;;;22.17;43.15
55171;BME280;41060;47.510;8.680;2023-05-22T00:53:32;96705.28;;;22.14;43.71
55171;BME280;41060;47.510;8.680;2023-05-22T00:55:59;96708.16;;;22.00;44.19
55171;BME280;41060;47.510;8.680;2023-05-22T00:58:26;96709.41;;;22.10;44.09
55171;BME280;41060;47.510;8.680;2023-05-22T01:00:54;96694.50;;;22.08;43.84
55171;BME280;41060;47.510;8.680;2023-05-22T01:03:24;96718.19;;;22.32;43.42
55171;BME280;41060;47.510;8.680;2023-05-22T01:05:51;96708.63;;;22.30;43.81
55171;BME280;41060;47.510;8.680;2023-05-22T01:08:21;96713.88;;;22.57;43.25
55171;BME280;41060;47.510;8.680;2023-05-22T01:10:53;96694.78;;;22.72;42.51
55171;BME280;41060;47.510;8.680;2023-05-22T01:13:28;96721.75;;;23.05;42.10
55171;BME280;41060;47.510;8.680;2023-05-22T01:16:04;96710.94;;;23.25;41.51
55171;BME280;41060;47.510;8.680;2023-05-22T01:18:45;96710.69;;;23.39;41.26
55171;BME280;41060;47.510;8.680;2023-05-22T01:21:20;96714.63;;;23.37;41.22
55171;BME280;41060;47.510;8.680;2023-05-22T01:24:13;96717.34;;;23.30;41.16
55171;BME280;41060;47.510;8.680;2023-05-22T01:26:58;96709.44;;;23.29;41.31
55171;BME280;41060;47.510;8.680;2023-05-22T01:29:55;96711.94;;;23.30;40.89
55171;BME280;41060;47.510;8.680;2023-05-22T01:32:28;96717.56;;;23.35;40.74
55171;BME280;41060;47.510;8.680;2023-05-22T01:35:00;96722.53;;;23.38;40.90
55171;BME280;41060;47.510;8.680;2023-05-22T01:37:27;96717.13;;;23.38;41.01
55171;BME280;41060;47.510;8.680;2023-05-22T01:39:58;96722.75;;;23.30;41.15
55171;BME280;41060;47.510;8.680;2023-05-22T01:42:25;96724.66;;;23.17;41.43
55171;BME280;41060;47.510;8.680;2023-05-22T01:44:51;96729.84;;;22.98;41.68
55171;BME280;41060;47.510;8.680;2023-05-22T01:47:19;96732.13;;;22.55;42.42
55171;BME280;41060;47.510;8.680;2023-05-22T01:49:46;96728.72;;;22.27;43.35
55171;BME280;41060;47.510;8.680;2023-05-22T01:52:16;96732.25;;;22.27;43.06
55171;BME280;41060;47.510;8.680;2023-05-22T01:54:52;96726.47;;;22.24;43.02
55171;BME280;41060;47.510;8.680;2023-05-22T01:57:27;96729.56;;;22.34;42.84
55171;BME280;41060;47.510;8.680;2023-05-22T02:00:01;96728.72;;;22.27;42.84
55171;BME280;41060;47.510;8.680;2023-05-22T02:02:36;96724.34;;;22.13;43.17
55171;BME280;41060;47.510;8.680;2023-05-22T02:05:09;96722.94;;;22.17;43.14
55171;BME280;41060;47.510;8.680;2023-05-22T02:07:37;96713.50;;;21.86;43.84
55171;BME280;41060;47.510;8.680;2023-05-22T02:10:06;96720.97;;;21.43;45.30
55171;BME280;41060;47.510;8.680;2023-05-22T02:12:35;96720.47;;;21.27;45.68
55171;BME280;41060;47.510;8.680;2023-05-22T02:15:02;96731.56;;;21.17;45.70
55171;BME280;41060;47.510;8.680;2023-05-22T02:17:30;96724.09;;;21.13;45.58
55171;BME280;41060;47.510;8.680;2023-05-22T02:19:58;96717.88;;;21.12;45.27
55171;BME280;41060;47.510;8.680;2023-05-22T02:22:26;96720.66;;;20.97;46.28
55171;BME280;41060;47.510;8.680;2023-05-22T02:24:53;96720.72;;;21.04;45.96
55171;BME280;41060;47.510;8.680;2023-05-22T02:27:19;96726.19;;;21.17;45.43
55171;BME280;41060;47.510;8.680;2023-05-22T02:29:46;96724.81;;;21.28;45.30
55171;BME280;41060;47.510;8.680;2023-05-22T02:32:13;96724.56;;;21.23;45.42
55171;BME280;41060;47.510;8.680;2023-05-22T02:34:41;96724.19;;;21.26;45.17
55171;BME280;41060;47.510;8.680;2023-05-22T02:37:08;96728.16;;;21.02;45.95
55171;BME280;41060;47.510;8.680;2023-05-22T02:39:36;96725.59;;;20.94;45.49
55171;BME280;41060;47.510;8.680;2023-05-22T02:42:06;96722.00;;;20.59;46.84
55171;BME280;41060;47.510;8.680;2023-05-22T02:44:33;96722.88;;;20.38;47.00
55171;BME280;41060;47.510;8.680;2023-05-22T02:47:00;96721.47;;;20.70;46.02
55171;BME280;41060;47.510;8.680;2023-05-22T02:49:26;96725.78;;;20.64;46.29
55171;BME280;41060;47.510;8.680;2023-05-22T02:51:53;96721.13;;;20.52;46.92
55171;BME280;41060;47.510;8.680;2023-05-22T02:54:20;96726.41;;;20.66;46.07
55171;BME280;41060;47.510;8.680;2023-05-22T02:59:15;96723.13;;;20.71;46.32
55171;BME280;41060;47.510;8.680;2023-05-22T03:01:42;96726.56;;;20.86;45.72
55171;BME280;41060;47.510;8.680;2023-05-22T03:04:13;96725.41;;;20.95;45.54
55171;BME280;41060;47.510;8.680;2023-05-22T03:06:39;96724.81;;;21.00;45.11
55171;BME280;41060;47.510;8.680;2023-05-22T03:09:06;96725.44;;;20.46;46.67
55171;BME280;41060;47.510;8.680;2023-05-22T03:11:33;96723.91;;;20.22;47.21
55171;BME280;41060;47.510;8.680;2023-05-22T03:14:01;96719.22;;;20.46;46.67
55171;BME280;41060;47.510;8.680;2023-05-22T03:16:28;96724.19;;;20.27;46.84
55171;BME280;41060;47.510;8.680;2023-05-22T03:19:06;96725.09;;;20.34;46.80
55171;BME280;41060;47.510;8.680;2023-05-22T03:21:33;96716.13;;;20.49;46.44
55171;BME280;41060;47.510;8.680;2023-05-22T03:24:00;96719.03;;;20.75;45.92
55171;BME280;41060;47.510;8.680;2023-05-22T03:26:27;96725.63;;;20.45;46.53
55171;BME280;41060;47.510;8.680;2023-05-22T03:28:56;96723.41;;;20.55;46.32
55171;BME280;41060;47.510;8.680;2023-05-22T03:31:25;96719.28;;;20.80;45.23
55171;BME280;41060;47.510;8.680;2023-05-22T03:33:52;96712.13;;;20.94;45.51
55171;BME280;41060;47.510;8.680;2023-05-22T03:36:19;96728.28;;;20.66;45.49
55171;BME280;41060;47.510;8.680;2023-05-22T03:38:47;96721.50;;;20.27;46.70
55171;BME280;41060;47.510;8.680;2023-05-22T03:41:13;96731.91;;;19.94;47.23
55171;BME280;41060;47.510;8.680;2023-05-22T03:43:41;96730.34;;;19.85;47.14
55171;BME280;41060;47.510;8.680;2023-05-22T03:46:07;96728.50;;;19.86;47.26
55171;BME280;41060;47.510;8.680;2023-05-22T03:48:37;96729.75;;;19.90;47.77
55171;BME280;41060;47.510;8.680;2023-05-22T03:51:04;96721.69;;;19.90;47.34
55171;BME280;41060;47.510;8.680;2023-05-22T03:53:31;96726.09;;;19.76;47.62
55171;BME280;41060;47.510;8.680;2023-05-22T03:55:57;96724.00;;;19.42;48.85
55171;BME280;41060;47.510;8.680;2023-05-22T03:58:25;96732.81;;;19.51;47.95
55171;BME280;41060;47.510;8.680;2023-05-22T04:00:52;96736.97;;;19.39;48.42
55171;BME280;41060;47.510;8.680;2023-05-22T04:03:18;96743.06;;;19.33;48.96
55171;BME280;41060;47.510;8.680;2023-05-22T04:05:46;96737.88;;;19.31;49.33
55171;BME280;41060;47.510;8.680;2023-05-22T04:08:16;96744.19;;;19.53;48.71
55171;BME280;41060;47.510;8.680;2023-05-22T04:10:43;96744.91;;;19.76;48.26
55171;BME280;41060;47.510;8.680;2023-05-22T04:13:11;96748.03;;;19.94;47.88
55171;BME280;41060;47.510;8.680;2023-05-22T04:15:38;96747.94;;;19.73;48.52
55171;BME280;41060;47.510;8.680;2023-05-22T04:18:06;96752.06;;;19.69;48.07
55171;BME280;41060;47.510;8.680;2023-05-22T04:20:33;96752.41;;;19.37;48.56
55171;BME280;41060;47.510;8.680;2023-05-22T04:23:01;96744.75;;;19.34;48.98
55171;BME280;41060;47.510;8.680;2023-05-22T04:25:28;96756.94;;;19.36;49.45
55171;BME280;41060;47.510;8.680;2023-05-22T04:27:56;96758.69;;;19.73;48.42
55171;BME280;41060;47.510;8.680;2023-05-22T04:30:23;96764.91;;;19.74;48.29
55171;BME280;41060;47.510;8.680;2023-05-22T04:32:50;96772.63;;;19.47;49.32
55171;BME280;41060;47.510;8.680;2023-05-22T04:35:17;96770.09;;;19.46;49.45
55171;BME280;41060;47.510;8.680;2023-05-22T04:37:44;96767.59;;;19.74;48.35
55171;BME280;41060;47.510;8.680;2023-05-22T04:40:12;96773.00;;;20.10;47.74
55171;BME280;41060;47.510;8.680;2023-05-22T04:42:40;96759.66;;;20.38;46.97
55171;BME280;41060;47.510;8.680;2023-05-22T04:45:08;96767.78;;;20.65;46.05
55171;BME280;41060;47.510;8.680;2023-05-22T04:47:35;96781.81;;;21.03;45.90
55171;BME280;41060;47.510;8.680;2023-05-22T04:50:03;96780.91;;;21.24;47.46
55171;BME280;41060;47.510;8.680;2023-05-22T04:52:30;96779.59;;;21.41;45.22
55171;BME280;41060;47.510;8.680;2023-05-22T04:54:56;96787.28;;;21.51;46.73
55171;BME280;41060;47.510;8.680;2023-05-22T04:57:24;96784.69;;;21.64;45.99
55171;BME280;41060;47.510;8.680;2023-05-22T04:59:52;96778.28;;;21.65;44.13
55171;BME280;41060;47.510;8.680;2023-05-22T05:02:19;96784.97;;;21.41;44.84
55171;BME280;41060;47.510;8.680;2023-05-22T05:04:46;96783.06;;;21.35;45.41
55171;BME280;41060;47.510;8.680;2023-05-22T05:07:13;96788.34;;;21.50;44.21
55171;BME280;41060;47.510;8.680;2023-05-22T05:09:41;96787.50;;;21.49;45.24
55171;BME280;41060;47.510;8.680;2023-05-22T05:12:08;96787.44;;;21.71;43.90
55171;BME280;41060;47.510;8.680;2023-05-22T05:14:36;96785.78;;;21.70;42.82
55171;BME280;41060;47.510;8.680;2023-05-22T05:17:03;96798.00;;;21.10;45.23
55171;BME280;41060;47.510;8.680;2023-05-22T05:19:30;96797.66;;;21.20;45.71
55171;BME280;41060;47.510;8.680;2023-05-22T05:21:58;96793.69;;;21.16;45.96
55171;BME280;41060;47.510;8.680;2023-05-22T05:24:25;96803.97;;;21.05;46.59
55171;BME280;41060;47.510;8.680;2023-05-22T05:26:53;96805.44;;;20.87;47.34
55171;BME280;41060;47.510;8.680;2023-05-22T05:29:19;96807.31;;;20.65;47.39
55171;BME280;41060;47.510;8.680;2023-05-22T05:31:47;96801.75;;;20.66;47.58
55171;BME280;41060;47.510;8.680;2023-05-22T05:34:14;96798.38;;;20.86;46.84
55171;BME280;41060;47.510;8.680;2023-05-22T05:36:43;96804.41;;;20.88;46.85
55171;BME280;41060;47.510;8.680;2023-05-22T05:39:10;96798.28;;;20.72;47.16
55171;BME280;41060;47.510;8.680;2023-05-22T05:41:37;96802.34;;;20.62;47.71
55171;BME280;41060;47.510;8.680;2023-05-22T05:44:06;96804.38;;;20.60;47.94
55171;BME280;41060;47.510;8.680;2023-05-22T05:46:32;96805.50;;;20.72;47.61
55171;BME280;41060;47.510;8.680;2023-05-22T05:49:05;96806.47;;;20.64;47.57
55171;BME280;41060;47.510;8.680;2023-05-22T05:51:34;96806.66;;;20.63;47.60
55171;BME280;41060;47.510;8.680;2023-05-22T05:54:01;96801.78;;;20.73;47.36
55171;BME280;41060;47.510;8.680;2023-05-22T05:56:27;96799.63;;;20.62;46.61
55171;BME280;41060;47.510;8.680;2023-05-22T05:58:54;96803.34;;;20.82;46.35
55171;BME280;41060;47.510;8.680;2023-05-22T06:01:29;96799.88;;;20.88;46.49
55171;BME280;41060;47.510;8.680;2023-05-22T06:03:57;96804.66;;;20.93;47.46
55171;BME280;41060;47.510;8.680;2023-05-22T06:08:59;96810.69;;;20.73;47.76
55171;BME280;41060;47.510;8.680;2023-05-22T06:11:29;96813.16;;;20.68;47.73
55171;BME280;41060;47.510;8.680;2023-05-22T06:13:56;96811.00;;;20.64;47.43
55171;BME280;41060;47.510;8.680;2023-05-22T06:16:23;96816.16;;;20.59;48.34
55171;BME280;41060;47.510;8.680;2023-05-22T06:18:51;96816.53;;;20.56;48.12
55171;BME280;41060;47.510;8.680;2023-05-22T06:21:17;96810.53;;;20.54;48.40
55171;BME280;41060;47.510;8.680;2023-05-22T06:23:46;96813.41;;;20.73;47.97
55171;BME280;41060;47.510;8.680;2023-05-22T06:26:14;96814.28;;;20.81;47.56
55171;BME280;41060;47.510;8.680;2023-05-22T06:28:41;96821.53;;;20.80;48.11
55171;BME280;41060;47.510;8.680;2023-05-22T06:31:07;96820.06;;;20.99;47.60
55171;BME280;41060;47.510;8.680;2023-05-22T06:33:35;96816.66;;;21.12;47.43
55171;BME280;41060;47.510;8.680;2023-05-22T06:36:02;96817.03;;;21.36;47.11
55171;BME280;41060;47.510;8.680;2023-05-22T06:38:29;96810.88;;;21.42;46.00
55171;BME280;41060;47.510;8.680;2023-05-22T06:40:58;96806.75;;;21.46;45.96
55171;BME280;41060;47.510;8.680;2023-05-22T06:43:25;96807.84;;;21.59;45.39
55171;BME280;41060;47.510;8.680;2023-05-22T06:45:52;96798.97;;;21.99;45.22
55171;BME280;41060;47.510;8.680;2023-05-22T06:48:19;96799.63;;;22.08;44.06
55171;BME280;41060;47.510;8.680;2023-05-22T06:50:46;96801.97;;;21.76;44.93
55171;BME280;41060;47.510;8.680;2023-05-22T06:53:12;96802.75;;;22.11;44.05
55171;BME280;41060;47.510;8.680;2023-05-22T06:55:40;96798.06;;;22.40;43.60
55171;BME280;41060;47.510;8.680;2023-05-22T06:58:08;96802.41;;;22.34;44.06
55171;BME280;41060;47.510;8.680;2023-05-22T07:00:35;96800.50;;;22.21;44.20
55171;BME280;41060;47.510;8.680;2023-05-22T07:03:02;96805.03;;;22.14;43.93
55171;BME280;41060;47.510;8.680;2023-05-22T07:05:30;96808.78;;;22.20;43.11
55171;BME280;41060;47.510;8.680;2023-05-22T07:07:59;96808.50;;;22.56;42.81
55171;BME280;41060;47.510;8.680;2023-05-22T07:10:26;96803.75;;;22.78;41.72
55171;BME280;41060;47.510;8.680;2023-05-22T07:12:52;96804.81;;;22.90;41.67
55171;BME280;41060;47.510;8.680;2023-05-22T07:15:20;96783.03;;;23.11;40.80
55171;BME280;41060;47.510;8.680;2023-05-22T07:17:47;96803.38;;;23.33;40.29
55171;BME280;41060;47.510;8.680;2023-05-22T07:20:14;96807.09;;;23.39;40.09
55171;BME280;41060;47.510;8.680;2023-05-22T07:22:41;96805.66;;;23.50;39.92
55171;BME280;41060;47.510;8.680;2023-05-22T07:25:11;96802.94;;;23.36;39.91
55171;BME280;41060;47.510;8.680;2023-05-22T07:27:37;96804.41;;;23.06;40.65
55171;BME280;41060;47.510;8.680;2023-05-22T07:30:05;96804.44;;;23.19;40.00
55171;BME280;41060;47.510;8.680;2023-05-22T07:32:34;96795.88;;;23.49;39.53
55171;BME280;41060;47.510;8.680;2023-05-22T07:35:00;96796.91;;;23.48;39.73
55171;BME280;41060;47.510;8.680;2023-05-22T07:37:27;96801.06;;;23.57;39.04
55171;BME280;41060;47.510;8.680;2023-05-22T07:39:54;96794.81;;;23.63;38.83
55171;BME280;41060;47.510;8.680;2023-05-22T07:42:21;96768.41;;;23.52;39.16
55171;BME280;41060;47.510;8.680;2023-05-22T07:44:47;96801.88;;;23.57;39.46
55171;BME280;41060;47.510;8.680;2023-05-22T07:47:14;96794.81;;;23.56;39.95
55171;BME280;41060;47.510;8.680;2023-05-22T07:49:42;96789.34;;;23.89;39.42
55171;BME280;41060;47.510;8.680;2023-05-22T07:52:09;96784.97;;;23.95;38.88
55171;BME280;41060;47.510;8.680;2023-05-22T07:54:38;96787.94;;;24.25;38.68
55171;BME280;41060;47.510;8.680;2023-05-22T07:57:05;96789.41;;;24.21;38.83
55171;BME280;41060;47.510;8.680;2023-05-22T07:59:32;96786.00;;;24.45;38.42
55171;BME280;41060;47.510;8.680;2023-05-22T08:02:00;96784.75;;;24.72;38.14
55171;BME280;41060;47.510;8.680;2023-05-22T08:04:27;96783.47;;;24.50;37.51
55171;BME280;41060;47.510;8.680;2023-05-22T08:06:55;96788.56;;;24.65;37.88
55171;BME280;41060;47.510;8.680;2023-05-22T08:09:23;96773.00;;;24.85;37.13
55171;BME280;41060;47.510;8.680;2023-05-22T08:11:49;96783.28;;;25.01;37.48
55171;BME280;41060;47.510;8.680;2023-05-22T08:14:15;96778.81;;;24.88;36.75
55171;BME280;41060;47.510;8.680;2023-05-22T08:16:43;96777.47;;;24.73;37.13
55171;BME280;41060;47.510;8.680;2023-05-22T08:19:09;96779.97;;;25.06;36.68
55171;BME280;41060;47.510;8.680;2023-05-22T08:21:35;96776.25;;;25.25;36.26
55171;BME280;41060;47.510;8.680;2023-05-22T08:24:04;96785.88;;;25.21;36.07
55171;BME280;41060;47.510;8.680;2023-05-22T08:26:31;96783.78;;;24.67;36.42
55171;BME280;41060;47.510;8.680;2023-05-22T08:28:58;96780.41;;;25.03;36.23
55171;BME280;41060;47.510;8.680;2023-05-22T08:31:25;96779.06;;;25.12;34.97
55171;BME280;41060;47.510;8.680;2023-05-22T08:33:53;96778.28;;;25.29;35.06
55171;BME280;41060;47.510;8.680;2023-05-22T08:36:26;96778.66;;;25.33;34.38
55171;BME280;41060;47.510;8.680;2023-05-22T08:38:54;96776.06;;;25.63;34.96
55171;BME280;41060;47.510;8.680;2023-05-22T08:41:22;96770.50;;;25.58;34.82
55171;BME280;41060;47.510;8.680;2023-05-22T08:43:49;96770.00;;;25.86;34.87
55171;BME280;41060;47.510;8.680;2023-05-22T08:46:17;96768.22;;;25.80;33.86
55171;BME280;41060;47.510;8.680;2023-05-22T08:48:44;96753.50;;;25.69;34.59
55171;BME280;41060;47.510;8.680;2023-05-22T08:51:17;96767.94;;;26.18;34.06
55171;BME280;41060;47.510;8.680;2023-05-22T08:53:44;96778.03;;;26.29;33.63
55171;BME280;41060;47.510;8.680;2023-05-22T08:56:14;96768.84;;;26.12;33.58
55171;BME280;41060;47.510;8.680;2023-05-22T08:58:42;96769.56;;;26.19;34.44
55171;BME280;41060;47.510;8.680;2023-05-22T09:01:10;96770.34;;;26.26;34.09
55171;BME280;41060;47.510;8.680;2023-05-22T09:03:39;96765.13;;;26.42;33.63
55171;BME280;41060;47.510;8.680;2023-05-22T09:06:06;96771.47;;;26.36;33.03
55171;BME280;41060;47.510;8.680;2023-05-22T09:08:34;96774.88;;;26.14;32.98
55171;BME280;41060;47.510;8.680;2023-05-22T09:11:02;96768.97;;;25.87;33.71
55171;BME280;41060;47.510;8.680;2023-05-22T09:13:30;96773.00;;;26.32;33.35
55171;BME280;41060;47.510;8.680;2023-05-22T09:15:59;96768.75;;;26.66;32.58
55171;BME280;41060;47.510;8.680;2023-05-22T09:18:27;96768.69;;;26.25;32.71
55171;BME280;41060;47.510;8.680;2023-05-22T09:20:56;96754.03;;;26.44;33.58
55171;BME280;41060;47.510;8.680;2023-05-22T09:23:26;96756.34;;;26.70;32.85
55171;BME280;41060;47.510;8.680;2023-05-22T09:25:54;96740.75;;;26.66;31.98
55171;BME280;41060;47.510;8.680;2023-05-22T09:28:21;96763.06;;;26.98;31.80
55171;BME280;41060;47.510;8.680;2023-05-22T09:30:47;96760.59;;;27.19;32.23
55171;BME280;41060;47.510;8.680;2023-05-22T09:33:17;96769.53;;;26.97;32.17
55171;BME280;41060;47.510;8.680;2023-05-22T09:35:45;96764.72;;;27.10;32.24
55171;BME280;41060;47.510;8.680;2023-05-22T09:38:12;96764.16;;;27.20;31.97
55171;BME280;41060;47.510;8.680;2023-05-22T09:40:42;96763.09;;;26.68;32.09
55171;BME280;41060;47.510;8.680;2023-05-22T09:43:08;96763.31;;;26.66;32.90
55171;BME280;41060;47.510;8.680;2023-05-22T09:45:36;96756.00;;;26.78;32.21
55171;BME280;41060;47.510;8.680;2023-05-22T09:48:04;96756.44;;;27.17;32.32
55171;BME280;41060;47.510;8.680;2023-05-22T09:50:32;96754.94;;;27.44;31.98
55171;BME280;41060;47.510;8.680;2023-05-22T09:53:00;96758.47;;;27.68;32.10
55171;BME280;41060;47.510;8.680;2023-05-22T09:55:28;96748.16;;;27.82;31.70
55171;BME280;41060;47.510;8.680;2023-05-22T09:57:55;96726.66;;;27.80;32.48
55171;BME280;41060;47.510;8.680;2023-05-22T10:00:23;96749.53;;;28.08;32.18
55171;BME280;41060;47.510;8.680;2023-05-22T10:02:53;96747.41;;;28.10;31.52
55171;BME280;41060;47.510;8.680;2023-05-22T10:05:30;96746.72;;;28.31;30.61
55171;BME280;41060;47.510;8.680;2023-05-22T10:08:02;96747.16;;;28.11;30.28
55171;BME280;41060;47.510;8.680;2023-05-22T10:10:31;96750.00;;;28.16;30.74
55171;BME280;41060;47.510;8.680;2023-05-22T10:13:00;96739.78;;;28.23;30.46
55171;BME280;41060;47.510;8.680;2023-05-22T10:15:29;96730.09;;;28.44;30.03
55171;BME280;41060;47.510;8.680;2023-05-22T10:17:57;96741.56;;;28.74;29.95
55171;BME280;41060;47.510;8.680;2023-05-22T10:20:26;96740.81;;;27.82;30.57
55171;BME280;41060;47.510;8.680;2023-05-22T10:22:54;96742.41;;;27.55;30.43
55171;BME280;41060;47.510;8.680;2023-05-22T10:25:22;96739.06;;;27.30;31.13
55171;BME280;41060;47.510;8.680;2023-05-22T10:27:51;96736.25;;;27.59;31.75
55171;BME280;41060;47.510;8.680;2023-05-22T10:30:25;96727.47;;;27.81;31.20
55171;BME280;41060;47.510;8.680;2023-05-22T10:32:56;96729.72;;;28.24;31.40
55171;BME280;41060;47.510;8.680;2023-05-22T10:35:31;96724.84;;;28.54;30.40
55171;BME280;41060;47.510;8.680;2023-05-22T10:38:27;96719.94;;;28.85;29.65
55171;BME280;41060;47.510;8.680;2023-05-22T10:40:58;96723.47;;;29.02;29.04
55171;BME280;41060;47.510;8.680;2023-05-22T10:43:28;96722.97;;;28.71;29.44
55171;BME280;41060;47.510;8.680;2023-05-22T10:46:01;96720.28;;;29.05;29.65
55171;BME280;41060;47.510;8.680;2023-05-22T10:48:30;96718.47;;;29.27;28.89
55171;BME280;41060;47.510;8.680;2023-05-22T10:51:02;96719.13;;;29.18;27.23
55171;BME280;41060;47.510;8.680;2023-05-22T10:53:31;96709.59;;;29.37;28.40
55171;BME280;41060;47.510;8.680;2023-05-22T10:56:08;96693.78;;;29.56;28.09
55171;BME280;41060;47.510;8.680;2023-05-22T10:58:35;96695.47;;;29.78;27.64
55171;BME280;41060;47.510;8.680;2023-05-22T11:01:13;96691.47;;;29.86;27.08
55171;BME280;41060;47.510;8.680;2023-05-22T11:03:57;96687.25;;;30.00;27.03
55171;BME280;41060;47.510;8.680;2023-05-22T11:06:30;96686.88;;;30.13;27.37
55171;BME280;41060;47.510;8.680;2023-05-22T11:08:58;96691.06;;;29.99;26.86
55171;BME280;41060;47.510;8.680;2023-05-22T11:11:26;96690.44;;;29.92;25.42
55171;BME280;41060;47.510;8.680;2023-05-22T11:14:00;96677.47;;;30.04;26.65
55171;BME280;41060;47.510;8.680;2023-05-22T11:16:33;96678.63;;;30.30;26.10
55171;BME280;41060;47.510;8.680;2023-05-22T11:19:04;96674.88;;;30.41;25.98
55171;BME280;41060;47.510;8.680;2023-05-22T11:21:34;96671.41;;;30.46;25.99
55171;BME280;41060;47.510;8.680;2023-05-22T11:24:01;96673.03;;;30.47;25.45
55171;BME280;41060;47.510;8.680;2023-05-22T11:26:29;96673.34;;;30.50;25.16
55171;BME280;41060;47.510;8.680;2023-05-22T11:28:58;96666.31;;;30.59;25.25
55171;BME280;41060;47.510;8.680;2023-05-22T11:31:25;96666.25;;;30.81;25.69
55171;BME280;41060;47.510;8.680;2023-05-22T11:33:52;96667.72;;;30.94;26.12
55171;BME280;41060;47.510;8.680;2023-05-22T11:36:19;96670.50;;;30.99;25.21
55171;BME280;41060;47.510;8.680;2023-05-22T11:38:46;96671.84;;;30.96;24.85
55171;BME280;41060;47.510;8.680;2023-05-22T11:41:14;96658.28;;;31.12;25.40
55171;BME280;41060;47.510;8.680;2023-05-22T11:43:44;96664.91;;;31.21;25.22
55171;BME280;41060;47.510;8.680;2023-05-22T11:46:20;96663.16;;;31.52;25.25
55171;BME280;41060;47.510;8.680;2023-05-22T11:48:47;96672.19;;;31.47;25.05
55171;BME280;41060;47.510;8.680;2023-05-22T11:51:17;96666.06;;;31.30;25.92
55171;BME280;41060;47.510;8.680;2023-05-22T11:53:45;96663.31;;;31.25;26.09
55171;BME280;41060;47.510;8.680;2023-05-22T11:56:12;96672.94;;;31.00;26.44
55171;BME280;41060;47.510;8.680;2023-05-22T11:58:39;96670.72;;;30.60;26.99
55171;BME280;41060;47.510;8.680;2023-05-22T12:01:07;96666.06;;;30.93;26.50
55171;BME280;41060;47.510;8.680;2023-05-22T12:03:34;96665.59;;;30.69;25.37
55171;BME280;41060;47.510;8.680;2023-05-22T12:06:01;96658.28;;;31.12;26.27
55171;BME280;41060;47.510;8.680;2023-05-22T12:08:27;96659.88;;;31.08;25.75
55171;BME280;41060;47.510;8.680;2023-05-22T12:10:55;96659.13;;;31.17;24.55
55171;BME280;41060;47.510;8.680;2023-05-22T12:13:26;96655.41;;;31.28;25.15
55171;BME280;41060;47.510;8.680;2023-05-22T12:15:53;96656.75;;;30.89;24.69
55171;BME280;41060;47.510;8.680;2023-05-22T12:18:22;96657.75;;;30.78;24.71
55171;BME280;41060;47.510;8.680;2023-05-22T12:20:53;96633.19;;;30.51;25.16
55171;BME280;41060;47.510;8.680;2023-05-22T12:23:22;96633.84;;;30.95;24.92
55171;BME280;41060;47.510;8.680;2023-05-22T12:25:55;96654.88;;;31.31;25.18
55171;BME280;41060;47.510;8.680;2023-05-22T12:28:23;96653.03;;;31.47;24.81
55171;BME280;41060;47.510;8.680;2023-05-22T12:30:57;96645.44;;;31.59;24.66
55171;BME280;41060;47.510;8.680;2023-05-22T12:33:26;96640.78;;;31.60;23.96
55171;BME280;41060;47.510;8.680;2023-05-22T12:35:53;96640.69;;;31.39;24.48
55171;BME280;41060;47.510;8.680;2023-05-22T12:38:23;96642.69;;;31.59;24.41
55171;BME280;41060;47.510;8.680;2023-05-22T12:40:50;96638.97;;;31.75;23.22
55171;BME280;41060;47.510;8.680;2023-05-22T12:43:17;96626.66;;;31.83;22.82
55171;BME280;41060;47.510;8.680;2023-05-22T12:45:46;96642.06;;;32.04;23.16
55171;BME280;41060;47.510;8.680;2023-05-22T12:48:13;96640.50;;;32.24;23.20
55171;BME280;41060;47.510;8.680;2023-05-22T12:50:42;96645.72;;;32.35;23.00
55171;BME280;41060;47.510;8.680;2023-05-22T12:53:09;96645.09;;;32.13;23.75
55171;BME280;41060;47.510;8.680;2023-05-22T12:55:36;96639.69;;;32.23;22.77
55171;BME280;41060;47.510;8.680;2023-05-22T12:58:03;96645.56;;;31.85;22.45
55171;BME280;41060;47.510;8.680;2023-05-22T13:00:30;96620.59;;;31.71;23.37
55171;BME280;41060;47.510;8.680;2023-05-22T13:02:58;96633.56;;;32.01;23.14
55171;BME280;41060;47.510;8.680;2023-05-22T13:05:27;96582.13;;;32.18;21.58
55171;BME280;41060;47.510;8.680;2023-05-22T13:07:55;96632.03;;;32.66;21.83
55171;BME280;41060;47.510;8.680;2023-05-22T13:10:22;96644.38;;;33.04;21.72
55171;BME280;41060;47.510;8.680;2023-05-22T13:12:48;96637.56;;;32.91;22.68